This is the latest recevied weather packets stored in our database for station/object KM5R. If no packets are shown the sender has not sent any weather packets the latest 1 day(s).
| Time | Temp. | Humidity | Pressure | Rain* | Wind** | Luminosity | Snow |
|---|---|---|---|---|---|---|---|
| 1778110097 | 16.11° C | 77% | 1015.3 hPa | 0 mm | - | 63 W/m² | - |
| 1778108277 | 16.67° C | 77% | 1014.9 hPa | 0 mm | - | 123 W/m² | - |
| 1778105851 | 16.11° C | 77% | 1015 hPa | 0 mm | - | 96 W/m² | - |
| 1778104940 | 15.56° C | 78% | 1014.8 hPa | 0 mm | - | 158 W/m² | - |
| 1778103727 | 15.56° C | 78% | 1015 hPa | 0 mm | - | 163 W/m² | - |
| 1778102210 | 15° C | 78% | 1015.1 hPa | 0 mm | - | 248 W/m² | - |
| 1778099186 | 13.89° C | 80% | 1015.8 hPa | 0 mm | - | 169 W/m² | - |
| 1778097365 | 13.33° C | 82% | 1016.2 hPa | 0 mm | - | 223 W/m² | - |
| 1778095547 | 13.33° C | 82% | 1016 hPa | 0 mm | - | 216 W/m² | - |
| 1778095243 | 12.78° C | 83% | 1016 hPa | 0 mm | - | 233 W/m² | - |
| 1778094333 | 12.78° C | 83% | 1015.9 hPa | 0 mm | - | 125 W/m² | - |
| 1778094030 | 12.78° C | 83% | 1015.8 hPa | 0 mm | - | 164 W/m² | - |
| 1778093424 | 12.78° C | 83% | 1016.2 hPa | 0 mm | - | 138 W/m² | - |
| 1778092211 | 12.78° C | 83% | 1016.2 hPa | 0 mm | - | 130 W/m² | - |
| 1778089786 | 12.22° C | 85% | 1016.3 hPa | 0 mm | - | 144 W/m² | - |
| 1778088272 | 11.67° C | 86% | 1016.1 hPa | 0 mm | - | 129 W/m² | - |
| 1778087666 | 11.67° C | 87% | 1015.9 hPa | 0 mm | - | 116 W/m² | - |
| 1778087364 | 11.67° C | 87% | 1015.8 hPa | 0 mm | - | 143 W/m² | - |
| 1778087060 | 11.11° C | 87% | 1016 hPa | 0 mm | - | 106 W/m² | - |
| 1778086759 | 11.11° C | 87% | 1016.1 hPa | 0 mm | - | 85 W/m² | - |
| 1778083424 | 11.67° C | 87% | 1014.3 hPa | 0 mm | - | 121 W/m² | - |
| 1778080783 | 11.11° C | 85% | 1014.8 hPa | 3.05 mm | - | 36 W/m² | - |
| 1778080178 | 11.11° C | 85% | 1015.3 hPa | 0 mm | - | 25 W/m² | - |
| 1778078965 | 11.11° C | 84% | 1015.7 hPa | 0 mm | - | 15 W/m² | - |
| 1778076848 | 12.22° C | 81% | 1016 hPa | 0 mm | - | 9 W/m² | - |
* Rain latest hour (hover to see other rain measurements)
** Current wind speed in m/s (hover to see current wind gust speed)